createdAt,value
2023-04-17T00:03:17.144Z,100913.63
2023-04-17T00:08:10.007Z,100914.45
2023-04-17T00:13:02.714Z,100914.36
2023-04-17T00:17:55.738Z,100915.39
2023-04-17T00:22:48.452Z,100919.36
2023-04-17T00:27:42.015Z,100918.96
2023-04-17T00:32:34.808Z,100924.32
2023-04-17T00:37:27.548Z,100924.09
2023-04-17T00:42:20.347Z,100927.70
2023-04-17T00:47:14.250Z,100936.16
2023-04-17T00:52:06.967Z,100939.90
2023-04-17T01:02:29.068Z,100944.30
2023-04-17T01:07:24.432Z,100939.21
2023-04-17T01:12:21.162Z,100939.83
2023-04-17T01:17:15.454Z,100937.27
2023-04-17T01:22:08.895Z,100939.04
2023-04-17T01:27:01.691Z,100940.27
2023-04-17T01:31:54.524Z,100935.32
2023-04-17T01:36:47.938Z,100936.70
2023-04-17T01:41:40.654Z,100943.58
2023-04-17T01:46:33.412Z,100942.66
2023-04-17T01:51:26.131Z,100941.95
2023-04-17T01:56:19.263Z,100938.95
2023-04-17T02:01:12.146Z,100941.78
2023-04-17T02:06:05.028Z,100941.44
2023-04-17T02:10:57.765Z,100944.09
2023-04-17T02:15:50.543Z,100949.58
2023-04-17T02:20:43.327Z,100949.86
2023-04-17T02:25:36.374Z,100948.05
2023-04-17T02:30:29.796Z,100945.89
2023-04-17T02:35:24.084Z,100943.65
2023-04-17T02:40:17.315Z,100947.98
2023-04-17T02:45:10.217Z,100947.27
2023-04-17T02:50:03.131Z,100954.33
2023-04-17T02:55:00.109Z,100957.68
2023-04-17T02:59:53.614Z,100962.66
2023-04-17T03:04:49.311Z,100968.55
2023-04-17T03:09:42.932Z,100968.98
2023-04-17T03:14:36.081Z,100969.13
2023-04-17T03:19:28.799Z,100971.86
2023-04-17T03:24:21.653Z,100967.05
2023-04-17T03:29:14.613Z,100968.91
2023-04-17T03:34:07.920Z,100975.05
2023-04-17T03:39:00.644Z,100972.10
2023-04-17T03:43:53.407Z,100982.61
2023-04-17T03:48:46.213Z,100983.16
2023-04-17T03:53:39.063Z,100984.41
2023-04-17T03:58:34.856Z,100994.65
2023-04-17T04:03:32.261Z,100995.39
2023-04-17T04:08:25.729Z,101000.41
2023-04-17T04:13:20.369Z,101006.30
2023-04-17T04:18:18.211Z,101011.89
2023-04-17T04:23:11.040Z,101017.70
2023-04-17T04:28:05.763Z,101025.30
2023-04-17T04:33:01.444Z,101025.58
2023-04-17T04:37:55.033Z,101027.89
2023-04-17T04:42:49.787Z,101029.66
2023-04-17T04:47:49.875Z,101030.25
2023-04-17T04:52:42.796Z,101026.39
2023-04-17T04:57:47.444Z,101034.36
2023-04-17T05:02:40.726Z,101038.60
2023-04-17T05:07:34.837Z,101038.52
2023-04-17T05:12:28.075Z,101038.46
2023-04-17T05:17:20.986Z,101045.13
2023-04-17T05:22:13.890Z,101039.19
2023-04-17T05:27:20.250Z,101039.92
2023-04-17T05:32:14.056Z,101038.89
2023-04-17T05:37:15.221Z,101051.17
2023-04-17T05:42:08.045Z,101059.74
2023-04-17T05:47:01.068Z,101060.41
2023-04-17T05:51:54.327Z,101063.52
2023-04-17T05:56:47.521Z,101068.08
2023-04-17T06:01:41.177Z,101062.79
2023-04-17T06:06:33.953Z,101065.95
2023-04-17T06:11:27.535Z,101062.09
2023-04-17T06:16:20.564Z,101066.52
2023-04-17T06:21:14.097Z,101073.35
2023-04-17T06:26:06.919Z,101074.23
2023-04-17T06:31:00.762Z,101077.33
2023-04-17T06:35:53.575Z,101075.84
2023-04-17T06:40:52.966Z,101072.45
2023-04-17T06:45:46.166Z,101067.63
2023-04-17T06:50:38.910Z,101071.33
2023-04-17T06:55:32.362Z,101074.55
2023-04-17T07:00:25.159Z,101081.45
2023-04-17T07:05:17.919Z,101080.31
2023-04-17T07:10:10.720Z,101087.88
2023-04-17T07:15:03.463Z,101092.05
2023-04-17T07:19:56.350Z,101096.09
2023-04-17T07:24:49.061Z,101105.19
2023-04-17T07:29:41.832Z,101108.71
2023-04-17T07:34:34.627Z,101112.96
2023-04-17T07:39:31.625Z,101124.35
2023-04-17T07:44:24.350Z,101127.45
2023-04-17T07:49:17.435Z,101125.09
2023-04-17T07:54:10.577Z,101126.60
2023-04-17T07:59:03.828Z,101127.92
2023-04-17T08:03:56.737Z,101126.29
2023-04-17T08:08:49.677Z,101130.45
2023-04-17T08:13:42.405Z,101132.53
2023-04-17T08:18:37.919Z,101124.54
2023-04-17T08:23:31.150Z,101121.03
2023-04-17T08:28:24.633Z,101123.71
2023-04-17T08:33:18.633Z,101125.90
2023-04-17T08:38:14.120Z,101129.58
2023-04-17T08:43:07.412Z,101135.92
2023-04-17T08:48:00.430Z,101135.60
2023-04-17T08:52:53.232Z,101145.23
2023-04-17T08:58:06.234Z,101147.73
2023-04-17T09:03:00.120Z,101155.03
2023-04-17T09:08:15.905Z,101159.45
2023-04-17T09:13:09.114Z,101158.63
2023-04-17T09:18:02.346Z,101158.16
2023-04-17T09:23:00.319Z,101151.55
2023-04-17T09:27:53.184Z,101151.39
2023-04-17T09:32:46.270Z,101149.94
2023-04-17T09:37:50.209Z,101155.27
2023-04-17T09:42:55.302Z,101157.41
2023-04-17T09:47:48.911Z,101152.63
2023-04-17T09:52:41.670Z,101151.35
2023-04-17T09:57:34.770Z,101150.98
2023-04-17T10:02:28.258Z,101149.33
2023-04-17T10:07:21.148Z,101149.61
2023-04-17T10:12:19.255Z,101155.21
2023-04-17T10:17:32.789Z,101152.68
2023-04-17T10:22:25.513Z,101152.64
2023-04-17T10:27:27.255Z,101146.47
2023-04-17T10:32:20.288Z,101138.64
2023-04-17T10:37:15.579Z,101132.81
2023-04-17T10:42:08.502Z,101135.93
2023-04-17T10:47:06.980Z,101133.84
2023-04-17T10:51:59.719Z,101137.33
2023-04-17T10:56:55.929Z,101140.72
2023-04-17T11:01:48.629Z,101136.89
2023-04-17T11:06:42.188Z,101135.87
2023-04-17T11:11:44.087Z,101138.71
2023-04-17T11:16:42.223Z,101145.59
2023-04-17T11:21:34.975Z,101149.86
2023-04-17T11:26:27.702Z,101150.46
2023-04-17T11:31:21.581Z,101149.10
2023-04-17T11:36:15.084Z,101156.16
2023-04-17T11:41:10.144Z,101154.42
2023-04-17T11:46:03.273Z,101157.36
2023-04-17T11:51:01.258Z,101159.33
2023-04-17T11:56:13.147Z,101161.08
2023-04-17T12:01:06.727Z,101156.20
2023-04-17T12:06:00.940Z,101148.19
2023-04-17T12:10:53.668Z,101146.45
2023-04-17T12:15:46.399Z,101146.15
2023-04-17T12:20:39.605Z,101143.73
2023-04-17T12:25:33.255Z,101147.07
2023-04-17T12:30:29.543Z,101153.20
2023-04-17T12:35:23.189Z,101159.14
2023-04-17T12:40:17.974Z,101158.27
2023-04-17T12:45:11.384Z,101165.97
2023-04-17T12:50:04.233Z,101168.05
2023-04-17T12:55:00.009Z,101165.59
2023-04-17T12:59:52.767Z,101164.02
2023-04-17T13:04:45.604Z,101168.56
2023-04-17T13:09:38.734Z,101167.69
2023-04-17T13:14:31.554Z,101171.20
2023-04-17T13:19:24.344Z,101170.49
2023-04-17T13:24:17.050Z,101171.34
2023-04-17T13:29:09.940Z,101176.90
2023-04-17T13:34:03.196Z,101175.61
2023-04-17T13:38:55.943Z,101179.52
2023-04-17T13:43:48.636Z,101174.80
2023-04-17T13:48:41.316Z,101174.39
2023-04-17T13:53:33.971Z,101177.45
2023-04-17T13:58:26.644Z,101179.86
2023-04-17T14:03:20.421Z,101182.44
2023-04-17T14:08:13.297Z,101178.41
2023-04-17T14:13:07.229Z,101184.20
2023-04-17T14:18:00.203Z,101182.41
2023-04-17T14:22:54.360Z,101181.58
2023-04-17T14:27:47.074Z,101174.46
2023-04-17T14:32:39.902Z,101173.75
2023-04-17T14:37:32.913Z,101178.79
2023-04-17T14:42:26.049Z,101180.55
2023-04-17T14:47:19.596Z,101180.35
2023-04-17T14:52:12.789Z,101170.05
2023-04-17T14:57:05.792Z,101171.80
2023-04-17T15:01:58.613Z,101171.93
2023-04-17T15:06:51.370Z,101173.09
2023-04-17T15:11:44.052Z,101176.61
2023-04-17T15:16:36.837Z,101178.42
2023-04-17T15:21:30.029Z,101182.80
2023-04-17T15:26:23.790Z,101183.81
2023-04-17T15:31:16.470Z,101184.18
2023-04-17T15:36:09.224Z,101182.15
2023-04-17T15:41:03.702Z,101177.88
2023-04-17T15:45:56.575Z,101180.34
2023-04-17T15:50:49.287Z,101177.02
2023-04-17T15:55:42.349Z,101177.36
2023-04-17T16:00:35.261Z,101177.46
2023-04-17T16:05:27.956Z,101181.31
2023-04-17T16:10:20.823Z,101184.93
2023-04-17T16:15:14.980Z,101184.41
2023-04-17T16:20:07.994Z,101193.50
2023-04-17T16:25:01.836Z,101194.72
2023-04-17T16:29:54.724Z,101204.33
2023-04-17T16:34:47.808Z,101208.90
2023-04-17T16:39:40.490Z,101214.49
2023-04-17T16:44:33.584Z,101217.55
2023-04-17T16:49:26.259Z,101226.02
2023-04-17T16:54:21.704Z,101226.15
2023-04-17T16:59:14.565Z,101229.74
2023-04-17T17:04:09.032Z,101237.52
2023-04-17T17:09:02.537Z,101238.54
2023-04-17T17:13:55.264Z,101247.73
2023-04-17T17:18:49.112Z,101250.48
2023-04-17T17:23:42.215Z,101257.13
2023-04-17T17:28:35.430Z,101258.52
2023-04-17T17:33:28.173Z,101264.60
2023-04-17T17:38:20.879Z,101268.58
2023-04-17T17:43:13.621Z,101276.41
2023-04-17T17:48:06.925Z,101279.71
2023-04-17T17:53:00.050Z,101276.77
2023-04-17T17:57:52.767Z,101280.09
2023-04-17T18:02:45.782Z,101283.96
2023-04-17T18:07:41.041Z,101283.89
2023-04-17T18:12:34.286Z,101285.04
2023-04-17T18:17:27.015Z,101288.58
2023-04-17T18:22:20.814Z,101294.23
2023-04-17T18:27:14.044Z,101295.15
2023-04-17T18:32:06.708Z,101298.66
2023-04-17T18:37:00.624Z,101299.42
2023-04-17T18:41:53.329Z,101300.70
2023-04-17T18:46:46.054Z,101298.64
2023-04-17T18:51:39.396Z,101295.91
2023-04-17T18:56:32.575Z,101302.77
2023-04-17T19:01:25.409Z,101302.83
2023-04-17T19:06:18.175Z,101308.45
2023-04-17T19:11:11.039Z,101307.72
2023-04-17T19:16:03.853Z,101307.33
2023-04-17T19:20:56.720Z,101312.29
2023-04-17T19:25:55.118Z,101312.20
2023-04-17T19:30:47.876Z,101311.40
2023-04-17T19:35:41.268Z,101307.83
2023-04-17T19:40:34.419Z,101303.05
2023-04-17T19:45:27.191Z,101310.45
2023-04-17T19:50:19.939Z,101314.84
2023-04-17T19:55:12.718Z,101318.26
2023-04-17T20:00:05.935Z,101318.12
2023-04-17T20:05:05.428Z,101317.82
2023-04-17T20:09:58.162Z,101324.80
2023-04-17T20:14:52.855Z,101328.31
2023-04-17T20:19:46.073Z,101325.11
2023-04-17T20:24:38.821Z,101324.64
2023-04-17T20:29:32.181Z,101324.70
2023-04-17T20:34:25.756Z,101328.05
2023-04-17T20:39:18.590Z,101332.96
2023-04-17T20:44:12.209Z,101334.47
2023-04-17T20:49:05.230Z,101335.24
2023-04-17T20:53:58.002Z,101335.35
2023-04-17T20:58:50.785Z,101338.54
2023-04-17T21:03:44.125Z,101337.59
2023-04-17T21:08:37.095Z,101339.13
2023-04-17T21:13:30.838Z,101342.37
2023-04-17T21:18:23.875Z,101346.73
2023-04-17T21:23:17.288Z,101350.95
2023-04-17T21:28:10.067Z,101349.50
2023-04-17T21:33:02.812Z,101351.74
2023-04-17T21:37:55.670Z,101357.23
2023-04-17T21:42:48.360Z,101353.80
2023-04-17T21:47:41.082Z,101351.19
2023-04-17T21:52:33.808Z,101346.77
2023-04-17T21:57:26.478Z,101346.48
2023-04-17T22:02:19.243Z,101347.63
2023-04-17T22:07:12.006Z,101348.84
2023-04-17T22:12:14.417Z,101346.38
2023-04-17T22:17:07.302Z,101347.48
2023-04-17T22:22:36.728Z,101351.04
2023-04-17T22:28:24.589Z,101347.90
2023-04-17T22:34:12.988Z,101349.04
2023-04-17T22:40:01.287Z,101351.69
2023-04-17T22:45:49.504Z,101350.41
2023-04-17T22:51:37.926Z,101349.55
2023-04-17T22:57:25.892Z,101350.98
2023-04-17T23:03:14.064Z,101353.29
2023-04-17T23:09:02.603Z,101353.95
2023-04-17T23:14:13.592Z,101351.71
2023-04-17T23:19:06.504Z,101350.44
2023-04-17T23:23:59.241Z,101344.73
2023-04-17T23:28:51.951Z,101351.89
2023-04-17T23:33:44.613Z,101347.39
2023-04-17T23:38:37.301Z,101344.08
2023-04-17T23:43:30.349Z,101344.17
2023-04-17T23:48:23.186Z,101339.28
2023-04-17T23:53:15.979Z,101335.36
2023-04-17T23:58:09.102Z,101335.77
